createdAt,value
2023-01-04T00:02:06.888Z,17.83
2023-01-04T00:04:35.106Z,16.67
2023-01-04T00:07:03.511Z,16.85
2023-01-04T00:09:31.680Z,17.20
2023-01-04T00:11:59.656Z,17.90
2023-01-04T00:14:27.948Z,16.58
2023-01-04T00:16:56.227Z,16.98
2023-01-04T00:19:25.889Z,16.08
2023-01-04T00:21:54.476Z,16.73
2023-01-04T00:24:22.763Z,16.30
2023-01-04T00:26:51.041Z,15.68
2023-01-04T00:29:21.376Z,16.38
2023-01-04T00:31:49.553Z,15.98
2023-01-04T00:34:20.135Z,14.93
2023-01-04T00:36:49.902Z,15.60
2023-01-04T00:39:18.743Z,15.55
2023-01-04T00:41:59.321Z,15.65
2023-01-04T00:44:28.043Z,15.30
2023-01-04T00:46:59.281Z,16.10
2023-01-04T00:49:28.228Z,15.75
2023-01-04T00:52:00.970Z,15.98
2023-01-04T00:54:29.513Z,16.02
2023-01-04T00:57:01.406Z,15.82
2023-01-04T00:59:29.672Z,16.08
2023-01-04T01:02:00.607Z,16.45
2023-01-04T01:04:30.950Z,16.40
2023-01-04T01:07:00.391Z,17.00
2023-01-04T01:09:28.653Z,15.80
2023-01-04T01:11:56.769Z,16.77
2023-01-04T01:14:28.478Z,16.55
2023-01-04T01:16:58.463Z,15.95
2023-01-04T01:19:34.592Z,16.23
2023-01-04T01:22:04.385Z,15.65
2023-01-04T01:24:32.360Z,16.25
2023-01-04T01:27:00.433Z,17.13
2023-01-04T01:29:28.485Z,15.80
2023-01-04T01:31:59.324Z,16.27
2023-01-04T01:34:27.744Z,16.13
2023-01-04T01:36:56.271Z,16.45
2023-01-04T01:39:25.786Z,16.30
2023-01-04T01:41:53.778Z,17.25
2023-01-04T01:45:06.747Z,16.80
2023-01-04T01:47:42.472Z,16.00
2023-01-04T01:50:23.111Z,16.42
2023-01-04T01:52:52.056Z,16.67
2023-01-04T01:55:21.846Z,16.60
2023-01-04T01:57:51.857Z,16.75
2023-01-04T02:00:20.416Z,16.60
2023-01-04T02:02:57.510Z,16.15
2023-01-04T02:05:27.461Z,17.25
2023-01-04T02:07:55.888Z,16.92
2023-01-04T02:10:25.912Z,17.13
2023-01-04T02:12:57.019Z,16.85
2023-01-04T02:15:29.667Z,17.15
2023-01-04T02:18:05.443Z,17.08
2023-01-04T02:20:45.829Z,17.75
2023-01-04T02:23:40.369Z,16.88
2023-01-04T02:26:53.364Z,17.67
2023-01-04T02:30:03.729Z,16.70
2023-01-04T02:32:54.733Z,16.73
2023-01-04T02:35:27.695Z,17.20
2023-01-04T02:38:06.081Z,17.10
2023-01-04T02:40:43.359Z,16.83
2023-01-04T02:43:38.419Z,17.33
2023-01-04T02:46:14.989Z,17.15
2023-01-04T02:49:02.093Z,16.90
2023-01-04T02:51:32.982Z,16.77
2023-01-04T02:54:08.426Z,16.33
2023-01-04T02:56:57.282Z,16.60
2023-01-04T02:59:54.330Z,16.50
2023-01-04T03:02:54.461Z,16.90
2023-01-04T03:05:52.562Z,16.55
2023-01-04T03:08:31.453Z,16.40
2023-01-04T03:11:05.965Z,16.02
2023-01-04T03:13:40.192Z,16.75
2023-01-04T03:16:12.334Z,17.00
2023-01-04T03:18:45.652Z,16.67
2023-01-04T03:21:17.143Z,16.17
2023-01-04T03:24:04.572Z,16.60
2023-01-04T03:26:54.020Z,16.15
2023-01-04T03:29:44.218Z,16.02
2023-01-04T03:32:36.978Z,15.90
2023-01-04T03:35:23.099Z,15.32
2023-01-04T03:38:18.072Z,16.23
2023-01-04T03:41:09.601Z,16.95
2023-01-04T03:44:02.188Z,15.80
2023-01-04T03:46:52.652Z,15.77
2023-01-04T03:49:26.466Z,16.23
2023-01-04T03:51:58.536Z,16.45
2023-01-04T03:54:32.491Z,15.95
2023-01-04T03:57:01.805Z,16.67
2023-01-04T03:59:30.142Z,16.20
2023-01-04T04:02:02.709Z,16.17
2023-01-04T04:04:48.314Z,15.60
2023-01-04T04:07:34.008Z,15.90
2023-01-04T04:10:03.429Z,16.02
2023-01-04T04:12:31.628Z,15.57
2023-01-04T04:15:01.057Z,16.02
2023-01-04T04:17:29.173Z,16.38
2023-01-04T04:20:00.368Z,16.75
2023-01-04T04:22:28.797Z,16.02
2023-01-04T04:24:56.909Z,16.67
2023-01-04T04:27:26.598Z,16.45
2023-01-04T04:29:54.824Z,15.55
2023-01-04T04:32:23.772Z,15.02
2023-01-04T04:34:54.518Z,15.52
2023-01-04T04:37:22.715Z,15.52
2023-01-04T04:39:50.896Z,15.35
2023-01-04T04:42:17.938Z,15.57
2023-01-04T04:44:50.158Z,15.80
2023-01-04T04:47:18.355Z,14.95
2023-01-04T04:49:46.298Z,14.40
2023-01-04T04:52:14.353Z,14.40
2023-01-04T04:54:42.507Z,14.57
2023-01-04T04:57:10.644Z,14.52
2023-01-04T04:59:38.677Z,15.30
2023-01-04T05:02:08.389Z,14.40
2023-01-04T05:04:36.596Z,14.73
2023-01-04T05:07:10.670Z,13.95
2023-01-04T05:09:41.594Z,13.73
2023-01-04T05:12:30.739Z,14.15
2023-01-04T05:14:58.838Z,13.60
2023-01-04T05:17:31.188Z,14.00
2023-01-04T05:19:59.700Z,13.13
2023-01-04T05:22:27.951Z,14.30
2023-01-04T05:24:56.064Z,13.60
2023-01-04T05:27:24.186Z,15.02
2023-01-04T05:30:09.680Z,14.52
2023-01-04T05:32:39.277Z,14.35
2023-01-04T05:35:08.642Z,13.88
2023-01-04T05:37:42.387Z,14.27
2023-01-04T05:40:11.257Z,13.88
2023-01-04T05:42:41.028Z,14.40
2023-01-04T05:45:10.163Z,13.98
2023-01-04T05:47:39.720Z,14.15
2023-01-04T05:50:11.863Z,14.30
2023-01-04T05:52:40.443Z,14.63
2023-01-04T05:55:09.201Z,14.50
2023-01-04T05:57:37.481Z,14.07
2023-01-04T06:00:09.276Z,14.40
2023-01-04T06:02:39.446Z,14.65
2023-01-04T06:05:08.356Z,14.60
2023-01-04T06:07:36.603Z,14.57
2023-01-04T06:10:05.095Z,15.23
2023-01-04T06:12:33.323Z,15.07
2023-01-04T06:15:03.853Z,15.98
2023-01-04T06:17:31.995Z,16.00
2023-01-04T06:20:12.776Z,14.73
2023-01-04T06:22:41.581Z,15.32
2023-01-04T06:25:13.617Z,14.80
2023-01-04T06:27:41.779Z,15.15
2023-01-04T06:30:11.195Z,14.55
2023-01-04T06:32:39.409Z,15.20
2023-01-04T06:35:09.465Z,14.60
2023-01-04T06:37:38.256Z,15.00
2023-01-04T06:40:07.593Z,14.68
2023-01-04T06:42:47.895Z,15.20
2023-01-04T06:45:17.283Z,16.42
2023-01-04T06:47:48.075Z,15.63
2023-01-04T06:50:19.130Z,15.98
2023-01-04T06:52:47.537Z,14.98
2023-01-04T06:55:16.873Z,15.27
2023-01-04T06:57:45.117Z,17.45
2023-01-04T07:00:19.929Z,16.60
2023-01-04T07:03:12.793Z,15.68
2023-01-04T07:05:39.380Z,18.08
2023-01-04T07:08:08.368Z,15.15
2023-01-04T07:10:37.045Z,16.83
2023-01-04T07:13:07.131Z,16.05
2023-01-04T07:15:40.039Z,20.95
2023-01-04T07:18:08.937Z,15.77
2023-01-04T07:21:07.727Z,14.80
2023-01-04T07:23:37.858Z,12.73
2023-01-04T07:26:06.496Z,15.45
2023-01-04T07:28:51.926Z,14.48
2023-01-04T07:31:31.815Z,12.77
2023-01-04T07:34:07.665Z,14.98
2023-01-04T07:36:41.073Z,12.68
2023-01-04T07:39:12.424Z,12.30
2023-01-04T07:41:42.189Z,13.63
2023-01-04T07:44:18.727Z,11.30
2023-01-04T07:46:49.280Z,14.27
2023-01-04T07:49:19.644Z,11.55
2023-01-04T07:51:53.313Z,12.20
2023-01-04T07:54:21.901Z,11.20
2023-01-04T07:56:53.654Z,11.57
2023-01-04T07:59:34.227Z,11.13
2023-01-04T08:02:07.364Z,10.25
2023-01-04T08:04:35.804Z,10.73
2023-01-04T08:07:11.603Z,12.32
2023-01-04T08:09:40.279Z,11.40
2023-01-04T08:12:42.092Z,15.25
2023-01-04T08:15:11.043Z,11.77
2023-01-04T08:17:39.360Z,12.63
2023-01-04T08:20:08.818Z,15.13
2023-01-04T08:22:40.889Z,14.63
2023-01-04T08:25:11.666Z,14.00
2023-01-04T08:27:41.875Z,14.52
2023-01-04T08:30:11.114Z,17.15
2023-01-04T08:32:40.628Z,19.20
2023-01-04T08:35:09.655Z,17.98
2023-01-04T08:37:41.917Z,16.92
2023-01-04T08:40:14.346Z,12.82
2023-01-04T08:42:44.584Z,18.58
2023-01-04T08:45:13.481Z,16.15
2023-01-04T08:47:50.435Z,22.85
2023-01-04T08:50:21.938Z,24.15
2023-01-04T08:52:54.293Z,18.55
2023-01-04T08:55:23.679Z,24.38
2023-01-04T08:57:54.406Z,18.88
2023-01-04T09:00:25.751Z,20.27
2023-01-04T09:02:56.972Z,20.15
2023-01-04T09:05:26.154Z,17.10
2023-01-04T09:07:56.915Z,20.40
2023-01-04T09:10:26.771Z,15.05
2023-01-04T09:12:57.214Z,25.58
2023-01-04T09:15:25.706Z,15.75
2023-01-04T09:18:29.500Z,15.30
2023-01-04T09:20:45.307Z,15.63
2023-01-04T09:23:16.761Z,14.48
2023-01-04T09:25:47.127Z,13.68
2023-01-04T09:28:15.993Z,19.17
2023-01-04T09:30:47.395Z,15.07
2023-01-04T09:34:03.969Z,16.17
2023-01-04T09:36:26.763Z,17.67
2023-01-04T09:38:57.372Z,17.50
2023-01-04T09:41:36.160Z,11.85
2023-01-04T09:44:18.669Z,19.13
2023-01-04T09:47:28.315Z,16.80
2023-01-04T09:50:01.503Z,13.20
2023-01-04T09:52:53.365Z,11.55
2023-01-04T09:55:38.779Z,14.43
2023-01-04T09:58:49.443Z,14.02
2023-01-04T10:02:00.523Z,18.00
2023-01-04T10:05:01.440Z,15.82
2023-01-04T10:08:16.217Z,14.13
2023-01-04T10:11:04.044Z,12.02
2023-01-04T10:14:00.095Z,14.30
2023-01-04T10:24:00.711Z,11.90
2023-01-04T10:26:41.224Z,10.45
2023-01-04T10:29:38.056Z,12.77
2023-01-04T10:32:22.011Z,15.88
2023-01-04T10:35:01.044Z,11.02
2023-01-04T10:37:36.486Z,12.10
2023-01-04T10:40:28.229Z,11.82
2023-01-04T10:43:05.980Z,12.82
2023-01-04T10:45:50.796Z,12.20
2023-01-04T10:48:34.110Z,10.10
2023-01-04T10:51:13.632Z,14.60
2023-01-04T10:53:49.181Z,15.93
2023-01-04T10:56:27.408Z,12.07
2023-01-04T10:59:14.016Z,12.88
2023-01-04T11:01:52.571Z,10.70
2023-01-04T11:04:36.799Z,10.82
2023-01-04T11:07:19.282Z,13.10
2023-01-04T11:09:56.607Z,10.77
2023-01-04T11:12:29.025Z,10.88
2023-01-04T11:15:02.677Z,11.57
2023-01-04T11:17:36.456Z,11.90
2023-01-04T11:20:05.761Z,12.23
2023-01-04T11:22:41.078Z,12.30
2023-01-04T11:28:08.502Z,12.43
2023-01-04T11:30:50.303Z,12.30
2023-01-04T11:33:20.804Z,14.23
2023-01-04T11:35:52.276Z,12.55
2023-01-04T11:38:24.426Z,13.23
2023-01-04T11:41:02.042Z,19.90
2023-01-04T11:43:32.539Z,14.55
2023-01-04T11:49:22.674Z,14.93
2023-01-04T11:51:51.139Z,17.08
2023-01-04T11:54:21.769Z,14.25
2023-01-04T11:57:19.817Z,21.17
2023-01-04T12:00:09.744Z,16.38
2023-01-04T12:03:00.609Z,23.08
2023-01-04T12:05:30.401Z,16.48
2023-01-04T12:07:59.813Z,17.90
2023-01-04T12:10:29.333Z,23.52
2023-01-04T12:13:05.179Z,17.60
2023-01-04T12:16:03.722Z,17.60
2023-01-04T12:18:43.703Z,18.90
2023-01-04T12:27:27.309Z,15.35
2023-01-04T12:30:09.852Z,19.08
2023-01-04T12:32:52.004Z,26.52
2023-01-04T12:36:34.558Z,17.48
2023-01-04T12:39:32.185Z,17.35
2023-01-04T12:42:27.296Z,19.70
2023-01-04T12:45:21.779Z,17.10
2023-01-04T12:48:11.586Z,17.75
2023-01-04T12:51:33.948Z,19.75
2023-01-04T12:54:06.919Z,22.08
2023-01-04T12:57:12.588Z,16.63
2023-01-04T12:59:53.903Z,22.38
2023-01-04T13:02:24.888Z,17.48
2023-01-04T13:05:43.605Z,17.27
2023-01-04T13:07:52.245Z,19.65
2023-01-04T13:10:30.307Z,17.38
2023-01-04T13:13:19.705Z,20.23
2023-01-04T13:16:00.805Z,18.58
2023-01-04T13:18:41.172Z,17.65
2023-01-04T13:21:14.733Z,17.95
2023-01-04T13:23:50.050Z,16.83
2023-01-04T13:26:39.398Z,17.25
2023-01-04T13:29:10.057Z,18.13
2023-01-04T13:31:59.327Z,24.27
2023-01-04T13:34:31.727Z,19.95
2023-01-04T13:37:08.793Z,18.50
2023-01-04T13:39:37.964Z,17.23
2023-01-04T13:42:24.851Z,17.65
2023-01-04T13:45:40.885Z,17.02
2023-01-04T13:48:13.713Z,24.48
2023-01-04T13:50:47.447Z,17.05
2023-01-04T13:53:24.783Z,17.20
2023-01-04T13:55:55.120Z,21.23
2023-01-04T13:58:27.089Z,17.20
2023-01-04T14:00:59.221Z,17.77
2023-01-04T14:03:35.684Z,18.48
2023-01-04T14:06:38.019Z,17.85
2023-01-04T14:09:16.386Z,19.40
2023-01-04T14:12:09.924Z,21.45
2023-01-04T14:14:57.295Z,22.67
2023-01-04T14:22:42.495Z,21.90
2023-01-04T14:25:43.514Z,19.35
2023-01-04T14:28:49.941Z,22.33
2023-01-04T14:51:30.747Z,22.63
2023-01-04T14:54:06.957Z,28.13
2023-01-04T14:56:35.476Z,23.77
2023-01-04T14:59:09.762Z,23.45
2023-01-04T15:01:44.434Z,25.92
2023-01-04T15:04:18.619Z,28.05
2023-01-04T15:06:52.447Z,26.13
2023-01-04T15:09:24.077Z,24.13
2023-01-04T15:11:52.602Z,28.40
2023-01-04T15:14:20.915Z,32.15
2023-01-04T15:16:49.364Z,31.00
2023-01-04T15:19:18.094Z,29.05
2023-01-04T15:21:46.797Z,29.80
2023-01-04T15:24:14.945Z,29.00
2023-01-04T15:26:49.163Z,28.15
2023-01-04T15:29:20.573Z,24.75
2023-01-04T15:31:48.954Z,30.00
2023-01-04T15:34:18.342Z,22.92
2023-01-04T15:36:48.057Z,32.58
2023-01-04T15:39:18.865Z,34.08
2023-01-04T15:42:24.476Z,22.05
2023-01-04T15:44:53.716Z,22.00
2023-01-04T15:47:30.108Z,26.85
2023-01-04T15:50:17.548Z,25.85
2023-01-04T15:52:46.232Z,27.00
2023-01-04T15:55:16.765Z,25.20
2023-01-04T15:57:46.764Z,27.27
2023-01-04T16:00:16.360Z,29.65
2023-01-04T16:02:44.685Z,26.05
2023-01-04T16:05:12.966Z,26.67
2023-01-04T16:07:41.189Z,33.97
2023-01-04T16:10:10.512Z,26.30
2023-01-04T16:12:45.963Z,25.65
2023-01-04T16:15:20.792Z,31.50
2023-01-04T16:17:49.751Z,28.88
2023-01-04T16:20:21.913Z,22.52
2023-01-04T16:22:50.398Z,25.52
2023-01-04T16:25:18.559Z,27.45
2023-01-04T16:27:46.573Z,27.75
2023-01-04T16:30:16.890Z,23.30
2023-01-04T16:32:45.745Z,21.85
2023-01-04T16:35:15.175Z,23.92
2023-01-04T16:37:43.326Z,22.08
2023-01-04T16:40:30.187Z,27.88
2023-01-04T16:42:58.557Z,26.55
2023-01-04T16:45:28.620Z,25.67
2023-01-04T16:47:57.591Z,24.63
2023-01-04T16:50:25.912Z,33.35
2023-01-04T16:52:54.344Z,25.95
2023-01-04T16:55:24.324Z,29.75
2023-01-04T16:57:52.671Z,31.63
2023-01-04T17:00:22.037Z,32.42
2023-01-04T17:03:16.471Z,29.02
2023-01-04T17:05:45.954Z,31.85
2023-01-04T17:08:14.423Z,29.40
2023-01-04T17:10:42.822Z,34.63
2023-01-04T17:13:11.273Z,30.65
2023-01-04T17:15:44.062Z,34.97
2023-01-04T17:18:15.770Z,37.50
2023-01-04T17:20:46.903Z,34.47
2023-01-04T17:23:15.294Z,34.03
2023-01-04T17:25:47.709Z,35.60
2023-01-04T17:28:24.454Z,30.85
2023-01-04T17:30:53.808Z,34.42
2023-01-04T17:33:23.634Z,36.00
2023-01-04T17:35:55.113Z,36.88
2023-01-04T17:38:23.376Z,37.30
2023-01-04T17:40:53.049Z,33.78
2023-01-04T17:43:21.237Z,39.58
2023-01-04T17:45:49.573Z,41.95
2023-01-04T17:48:18.792Z,38.63
2023-01-04T17:50:49.166Z,42.80
2023-01-04T17:53:17.707Z,42.92
2023-01-04T17:55:45.956Z,45.22
2023-01-04T17:58:16.914Z,44.17
2023-01-04T18:00:46.467Z,43.45
2023-01-04T18:03:14.892Z,49.13
2023-01-04T18:06:07.092Z,47.13
2023-01-04T18:08:43.092Z,40.33
2023-01-04T18:11:12.398Z,44.20
2023-01-04T18:13:43.265Z,51.10
2023-01-04T18:16:29.538Z,43.15
2023-01-04T18:18:59.128Z,47.53
2023-01-04T18:21:31.160Z,42.42
2023-01-04T18:24:34.638Z,49.40
2023-01-04T18:29:37.606Z,40.35
2023-01-04T18:32:06.272Z,49.63
2023-01-04T18:34:34.556Z,43.40
2023-01-04T18:37:04.288Z,48.83
2023-01-04T18:39:32.471Z,40.88
2023-01-04T18:42:00.518Z,43.92
2023-01-04T18:44:34.025Z,48.33
2023-01-04T18:47:03.662Z,43.95
2023-01-04T18:49:32.136Z,53.67
2023-01-04T18:52:00.675Z,47.05
2023-01-04T18:54:30.513Z,41.70
2023-01-04T18:57:01.237Z,43.35
2023-01-04T18:59:30.171Z,40.65
2023-01-04T19:02:03.124Z,41.55
2023-01-04T19:04:33.350Z,46.72
2023-01-04T19:07:02.262Z,37.15
2023-01-04T19:09:32.128Z,46.45
2023-01-04T19:12:00.908Z,39.10
2023-01-04T19:14:29.289Z,36.80
2023-01-04T19:16:57.446Z,34.28
2023-01-04T19:19:26.192Z,43.70
2023-01-04T19:21:56.791Z,39.20
2023-01-04T19:24:27.689Z,37.55
2023-01-04T19:27:02.888Z,37.17
2023-01-04T19:29:34.744Z,37.17
2023-01-04T19:32:03.414Z,42.55
2023-01-04T19:34:33.015Z,33.28
2023-01-04T19:37:01.391Z,37.38
2023-01-04T19:39:30.162Z,38.13
2023-01-04T19:42:04.192Z,41.25
2023-01-04T19:44:47.314Z,38.13
2023-01-04T19:47:29.869Z,39.28
2023-01-04T19:50:02.198Z,36.92
2023-01-04T19:52:42.413Z,42.67
2023-01-04T19:55:11.747Z,38.85
2023-01-04T19:57:42.413Z,35.15
2023-01-04T20:00:12.453Z,40.30
2023-01-04T20:02:41.856Z,41.20
2023-01-04T20:05:13.526Z,37.00
2023-01-04T20:07:44.811Z,31.67
2023-01-04T20:10:16.245Z,40.97
2023-01-04T20:12:54.052Z,33.63
2023-01-04T20:15:23.028Z,36.22
2023-01-04T20:17:51.630Z,29.88
2023-01-04T20:20:22.157Z,39.28
2023-01-04T20:22:50.296Z,37.92
2023-01-04T20:25:18.600Z,35.05
2023-01-04T20:27:48.305Z,34.33
2023-01-04T20:30:18.826Z,36.38
2023-01-04T20:32:46.975Z,37.22
2023-01-04T20:35:15.904Z,39.05
2023-01-04T20:37:44.231Z,31.98
2023-01-04T20:40:14.578Z,32.53
2023-01-04T20:42:59.976Z,42.90
2023-01-04T20:45:32.532Z,40.38
2023-01-04T20:48:00.644Z,35.53
2023-01-04T20:50:28.789Z,32.58
2023-01-04T20:52:56.953Z,46.92
2023-01-04T20:55:25.302Z,39.40
2023-01-04T20:57:53.870Z,35.47
2023-01-04T21:00:22.051Z,38.30
2023-01-04T21:02:51.991Z,44.10
2023-01-04T21:05:20.281Z,38.80
2023-01-04T21:07:48.560Z,41.53
2023-01-04T21:10:16.907Z,36.08
2023-01-04T21:12:47.665Z,32.20
2023-01-04T21:15:15.994Z,38.80
2023-01-04T21:17:44.115Z,40.70
2023-01-04T21:20:13.839Z,40.22
2023-01-04T21:22:41.904Z,35.63
2023-01-04T21:25:10.947Z,40.15
2023-01-04T21:27:42.013Z,39.47
2023-01-04T21:30:11.400Z,34.65
2023-01-04T21:32:39.389Z,33.97
2023-01-04T21:35:09.150Z,41.53
2023-01-04T21:37:38.927Z,37.38
2023-01-04T21:40:08.280Z,35.25
2023-01-04T21:42:36.664Z,37.80
2023-01-04T21:45:05.753Z,32.90
2023-01-04T21:47:34.930Z,39.83
2023-01-04T21:50:02.984Z,40.92
2023-01-04T21:52:31.632Z,44.22
2023-01-04T21:55:01.699Z,36.35
2023-01-04T21:57:30.151Z,42.85
2023-01-04T21:59:58.273Z,39.60
2023-01-04T22:02:26.495Z,35.10
2023-01-04T22:04:54.756Z,37.58
2023-01-04T22:07:23.337Z,40.05
2023-01-04T22:09:57.262Z,39.58
2023-01-04T22:12:27.725Z,39.53
2023-01-04T22:14:59.076Z,38.42
2023-01-04T22:17:27.424Z,35.20
2023-01-04T22:19:55.604Z,38.78
2023-01-04T22:22:23.906Z,41.08
2023-01-04T22:24:52.147Z,37.33
2023-01-04T22:27:20.472Z,32.33
2023-01-04T22:29:50.127Z,35.35
2023-01-04T22:32:18.287Z,41.85
2023-01-04T22:34:46.416Z,32.85
2023-01-04T22:37:14.949Z,38.05
2023-01-04T22:39:44.094Z,35.47
2023-01-04T22:42:12.376Z,35.42
2023-01-04T22:44:40.737Z,38.25
2023-01-04T22:47:10.636Z,32.63
2023-01-04T22:49:39.025Z,34.28
2023-01-04T22:52:07.232Z,34.97
2023-01-04T22:54:35.592Z,38.15
2023-01-04T22:57:04.009Z,40.70
2023-01-04T22:59:32.208Z,31.90
2023-01-04T23:02:00.416Z,39.03
2023-01-04T23:04:30.574Z,38.88
2023-01-04T23:06:59.095Z,46.03
2023-01-04T23:09:27.093Z,34.40
2023-01-04T23:11:56.172Z,37.08
2023-01-04T23:14:24.198Z,41.47
2023-01-04T23:16:52.502Z,35.60
2023-01-04T23:19:20.616Z,31.80
2023-01-04T23:21:50.111Z,33.15
2023-01-04T23:24:18.092Z,37.65
2023-01-04T23:26:47.289Z,39.80
2023-01-04T23:29:15.445Z,34.92
2023-01-04T23:31:43.730Z,38.15
2023-01-04T23:34:13.542Z,39.15
2023-01-04T23:36:43.234Z,41.85
2023-01-04T23:39:14.791Z,35.03
2023-01-04T23:41:46.130Z,40.92
2023-01-04T23:44:20.324Z,34.88
2023-01-04T23:46:56.999Z,32.95
2023-01-04T23:49:26.974Z,38.10
2023-01-04T23:51:55.295Z,31.33
2023-01-04T23:54:24.909Z,36.83
2023-01-04T23:56:53.255Z,32.67
2023-01-04T23:59:22.036Z,35.55
